Herzele, Belgium
Current Conditions -  °F | °C
As of 10:25 AM on Thursday 23 Oct 2014 (Local Time) from EBCV Reporting Station
Overcast Overcast  
Wind Chill: 50°   Ceiling: 3400
Heat Index: 50°   Visibility: 4mi
Dew Point: 48°   Wind: 9mph
Humidity: 94%   Direction: 220°SW
Pressure: 30.24"   Gusts: NA
Location:  50.89°N, 3.89°E
Report Text: EBCV 230825Z AUTO 22008KT 6000 FEW018/// SCT021/// OVC034/// 10/09 Q1024 WHT
Loading
Personal Weather Stations






























Interactive Weather Map
Tropical Storm Tracking
New forecast layout! Learn more

10-Day Weather Forecast

Advertisements
Track Severe Weather on mobile